Aktualne dane pomiarowe

Uwaga, wersja testowa! Automatyczne pobieranie danych za pomocą narzędzi lub skryptów to umożliwiających jest zabronione.

Dane meteo z obszaru Polski uzyskane na podstawie depesz SYNOP pobieranych co godzinę z NWS. Najedź myszką na symbol przedstawiony w tabeli, aby uzyskać informacje co do jego znaczenia. Prosimy pamiętać, że to testowa wersja strony, która jeszcze nie jest ukończona. Stworzono również jest krótki FAQ dotyczący korzystania z tej podstrony Anomalie temperatury w chwili obecnej odniesione są do okresu referencyjnego 1951-2016. Okres ten będzie później zmieniony na 1981-2010. Kliknij ikonę aby pobrać plik CSV. Kliknij ikonę aby wygenerować mapę synoptyczną dla danego terminu.

Wybierz Datę:    

        

Częstochowa (12550)

Dane terminowe dla wybranej stacji. Kliknij datę, aby otrzymać dane z tego terminu dla wszystkich stacji.

TemperaturaZachmurzenieWiatrCiśnienieOpadyPogoda
 Data t td wb tx tn tg rh  Nt Nl Cl Cm Ch ws wd g1 g2 wx mslp ppp ch 24h 12h t ww ww w1 w2  
2019-07-12 23:00:00 16.0 11.4 13.0--- 7424.0--0---01010.7 976.0 0.0---wx-----
2019-07-12 22:00:00 16.2 11.1 12.9--- 7229.0--1wx---1010.8 976.1 0.0---------
2019-07-12 21:00:00 16.3 10.8 12.8--- 7030.0--1wx--11010.5 975.9 0.1---------
2019-07-12 20:00:00 16.9 10.5 12.9--- 6635.0--1wx--11010.6 976.0 0.4---------
2019-07-12 19:00:00 17.8 10.4 13.3--- 6230.0--1wx--11010.6 976.1 0.6---------
2019-07-12 18:00:00 19.3 10.0 13.7 26.2 15.3- 5540.0--1wx-711010.1 975.8 0.6- 0.012------
2019-07-12 17:00:00 20.0 9.8 13.9--- 5240.0--2wx--21009.8 975.6 0.5---------
2019-07-12 16:00:00 20.7 10.5 14.6--- 5235.0--1wx-711009.6 975.5 0.2---------
2019-07-12 15:00:00 22.2 8.7 14.4--- 4235.0--2wx-721009.1 975.2 -0.4---------
2019-07-12 14:00:00 24.9 4.1 13.7--- 2626.0--2wx--21008.7 975.1 -0.9---------
2019-07-12 13:00:00 25.4 5.0 14.3--- 2740.0--2wx--21008.8 975.3 -1.0---------
2019-07-12 12:00:00 24.9 5.6 14.3--- 2935.0--2wx--21009.2 975.6 -1.2- 0.06------
2019-07-12 11:00:00 24.6 6.3 14.5--- 3135.0--1wx--11009.7 976.0 -1.1---------
2019-07-12 10:00:00 22.8 5.7 13.5--- 3330.0--2wx--21010.2 976.3 -0.9---------
2019-07-12 09:00:00 22.2 8.7 14.4--- 4228.0--2wx---1010.8 976.8 -0.3---------
2019-07-12 08:00:00 17.9 9.3 12.8--- 5730.0--2wx--21011.6 977.1 0.0---------
2019-07-12 07:00:00 16.6 8.8 12.0--- 6028.0--2wx--21011.8 977.2 0.0---------
2019-07-12 06:00:00 15.3 8.3 11.1 18.7 11.4 9 6319.0--2wx--21011.9 977.1 0.1- 0.012----- 7.1
2019-07-12 05:00:00 14.2 7.5 10.2--- 6423.0--2wx---1012.0 977.1 -0.1---------
2019-07-12 04:00:00 11.6 6.7 8.6--- 7222.0--1wx--11012.5 977.2 -0.3---------
2019-07-12 03:00:00 11.9 6.6 8.7--- 7026.0--2wx--21012.2 977.0 -0.8---------
2019-07-12 02:00:00 12.3 6.3 8.8--- 6730.0--1wx--11012.4 977.2 -0.9---------
2019-07-12 01:00:00 11.5 6.4 8.4--- 7125.0--1wx--11012.8 977.5 -0.8---------
2019-07-12 00:00:00 11.5 6.4 8.4--- 7128.0--1wx--11013.1 977.8 -0.3- 0.06------
2019-07-11 23:00:00 11.9 6.6 8.7--- 7030.0--1wx--11013.4 978.1 0.1---------
2019-07-11 22:00:00 13.0 6.8 9.3--- 6630.0--1wx--11013.4 978.3 0.7---------
2019-07-11 21:00:00 14.2 6.8 9.9--- 6135.0--2wx--21013.1 978.1 0.6---------
2019-07-11 20:00:00 15.1 6.6 10.3--- 5726.0--1wx--11012.9 978.0 0.5---------
2019-07-11 19:00:00 16.9 6.4 11.0--- 5040.0--1wx--11012.2 977.6 -0.1---------
2019-07-11 18:00:00 18.7 5.5 11.5 20.0 12.5- 4245.0--1wx-1011011.9 977.5 -0.2--12------
2019-07-11 17:00:00 19.4 5.1 11.7--- 3945.0--3wx--31011.8 977.5 -0.4---------
2019-07-11 16:00:00 19.6 6.0 12.1--- 4135.0--2wx--21012.0 977.7 -0.2---------
2019-07-11 15:00:00 19.4 5.1 11.7--- 3929.0--4wx-1041012.0 977.7 -0.3---------
2019-07-11 14:00:00 18.9 5.3 11.5--- 4135.0--5wx101051012.3 977.9 -0.1---------
2019-07-11 13:00:00 18.5 5.0 11.2--- 4135.0--6wx101061012.3 977.9 -0.2---------
2019-07-11 12:00:00 18.1 5.3 11.2--- 4330.0--5wx9951012.5 978.0 -0.2--6------
2019-07-11 11:00:00 17.6 5.5 11.0--- 4540.0--5wx-951012.5 978.0 0.0---------
2019-07-11 10:00:00 17.1 6.0 11.0--- 4835.0--5wx--51012.7 978.1 0.1---------
2019-07-11 09:00:00 16.2 7.9 11.4--- 5830.0--5wx--51012.9 978.2 0.3---------
2019-07-11 08:00:00 15.2 8.9 11.4--- 6635.0--5wx--51012.8 978.0 0.2---------
2019-07-11 07:00:00 13.7 10.9 11.8--- 8329.0--4wx---1013.0 978.0 0.5---wx-----
2019-07-11 06:00:00 12.5 10.7 11.3 16.1 10.4 9 8929.0--1wx--11013.1 977.9 0.4 0.5 0.212----- 6.9
2019-07-11 05:00:00 11.4 10.3 10.6--- 9314.0--2wx--21013.1 977.8 -0.4---------
2019-07-11 04:00:00 10.9 9.8 10.1--- 9313.0--1wx--11012.9 977.5 -0.9---------
2019-07-11 03:00:00 11.0 9.4 9.9--- 9018.0--1wx--11012.8 977.5 -1.1---wx-----
2019-07-11 02:00:00 11.3 9.7 10.2--- 9013.0--3wx--31013.5 978.2 -0.5---wx-----
2019-07-11 01:00:00 10.4 9.0 9.4--- 9123.0--1wx--11013.9 978.4 -0.6---------
2019-07-11 00:00:00 10.7 8.6 9.3--- 8740.0--1wx--11014.0 978.6 -0.3- 0.06------
4.6 ms

 

Print Friendly, PDF & Email